sensor_id;sensor_type;location;lat;lon;timestamp;P1;durP1;ratioP1;P2;durP2;ratioP2
52620;SDS011;38515;53.160;6.990;2022-07-03T00:01:57;4.63;;;3.17;;
52620;SDS011;38515;53.160;6.990;2022-07-03T00:04:23;4.60;;;3.42;;
52620;SDS011;38515;53.160;6.990;2022-07-03T00:06:49;3.45;;;3.13;;
52620;SDS011;38515;53.160;6.990;2022-07-03T00:09:15;4.13;;;3.15;;
52620;SDS011;38515;53.160;6.990;2022-07-03T00:11:42;4.25;;;3.30;;
52620;SDS011;38515;53.160;6.990;2022-07-03T00:14:08;5.30;;;3.17;;
52620;SDS011;38515;53.160;6.990;2022-07-03T00:16:34;4.47;;;3.38;;
52620;SDS011;38515;53.160;6.990;2022-07-03T00:19:00;3.55;;;2.55;;
52620;SDS011;38515;53.160;6.990;2022-07-03T00:21:29;4.47;;;2.75;;
52620;SDS011;38515;53.160;6.990;2022-07-03T00:26:28;3.22;;;2.92;;
52620;SDS011;38515;53.160;6.990;2022-07-03T00:28:58;5.80;;;3.63;;
52620;SDS011;38515;53.160;6.990;2022-07-03T00:31:28;4.57;;;3.63;;
52620;SDS011;38515;53.160;6.990;2022-07-03T00:33:57;5.07;;;2.60;;
52620;SDS011;38515;53.160;6.990;2022-07-03T00:36:33;3.95;;;3.10;;
52620;SDS011;38515;53.160;6.990;2022-07-03T00:39:01;6.47;;;2.80;;
52620;SDS011;38515;53.160;6.990;2022-07-03T00:41:29;7.10;;;3.10;;
52620;SDS011;38515;53.160;6.990;2022-07-03T00:43:56;6.50;;;4.45;;
52620;SDS011;38515;53.160;6.990;2022-07-03T00:46:23;5.00;;;4.50;;
52620;SDS011;38515;53.160;6.990;2022-07-03T00:48:50;6.72;;;5.00;;
52620;SDS011;38515;53.160;6.990;2022-07-03T00:51:20;5.50;;;4.75;;
52620;SDS011;38515;53.160;6.990;2022-07-03T00:53:50;6.18;;;3.63;;
52620;SDS011;38515;53.160;6.990;2022-07-03T00:56:19;4.68;;;4.22;;
52620;SDS011;38515;53.160;6.990;2022-07-03T00:58:49;4.72;;;4.30;;
52620;SDS011;38515;53.160;6.990;2022-07-03T01:01:24;6.60;;;4.82;;
52620;SDS011;38515;53.160;6.990;2022-07-03T01:06:39;4.38;;;3.97;;
52620;SDS011;38515;53.160;6.990;2022-07-03T01:09:12;7.03;;;4.88;;
52620;SDS011;38515;53.160;6.990;2022-07-03T01:11:38;5.47;;;4.68;;
52620;SDS011;38515;53.160;6.990;2022-07-03T01:17:02;8.00;;;5.13;;
52620;SDS011;38515;53.160;6.990;2022-07-03T01:19:41;7.45;;;4.75;;
52620;SDS011;38515;53.160;6.990;2022-07-03T01:22:29;6.68;;;5.53;;
52620;SDS011;38515;53.160;6.990;2022-07-03T01:24:56;6.18;;;4.70;;
52620;SDS011;38515;53.160;6.990;2022-07-03T01:27:44;7.03;;;5.38;;
52620;SDS011;38515;53.160;6.990;2022-07-03T01:30:26;5.30;;;4.80;;
52620;SDS011;38515;53.160;6.990;2022-07-03T01:32:58;7.93;;;5.18;;
52620;SDS011;38515;53.160;6.990;2022-07-03T01:35:29;6.00;;;5.07;;
52620;SDS011;38515;53.160;6.990;2022-07-03T01:38:09;5.45;;;4.93;;
52620;SDS011;38515;53.160;6.990;2022-07-03T01:40:37;6.47;;;5.40;;
52620;SDS011;38515;53.160;6.990;2022-07-03T01:43:06;5.47;;;4.70;;
52620;SDS011;38515;53.160;6.990;2022-07-03T01:45:37;4.68;;;4.07;;
52620;SDS011;38515;53.160;6.990;2022-07-03T01:48:07;7.00;;;6.20;;
52620;SDS011;38515;53.160;6.990;2022-07-03T01:50:36;7.50;;;5.93;;
52620;SDS011;38515;53.160;6.990;2022-07-03T01:53:03;6.50;;;5.72;;
52620;SDS011;38515;53.160;6.990;2022-07-03T01:55:32;6.47;;;5.43;;
52620;SDS011;38515;53.160;6.990;2022-07-03T01:58:00;6.32;;;4.68;;
52620;SDS011;38515;53.160;6.990;2022-07-03T02:00:26;6.15;;;4.93;;
52620;SDS011;38515;53.160;6.990;2022-07-03T02:05:29;8.95;;;5.82;;
52620;SDS011;38515;53.160;6.990;2022-07-03T02:08:08;6.57;;;5.88;;
52620;SDS011;38515;53.160;6.990;2022-07-03T02:10:41;9.38;;;6.30;;
52620;SDS011;38515;53.160;6.990;2022-07-03T02:13:16;10.98;;;7.15;;
52620;SDS011;38515;53.160;6.990;2022-07-03T02:15:49;6.68;;;5.70;;
52620;SDS011;38515;53.160;6.990;2022-07-03T02:20:56;6.82;;;6.13;;
52620;SDS011;38515;53.160;6.990;2022-07-03T02:23:30;7.93;;;5.95;;
52620;SDS011;38515;53.160;6.990;2022-07-03T02:25:59;7.80;;;5.82;;
52620;SDS011;38515;53.160;6.990;2022-07-03T02:30:55;7.43;;;6.65;;
52620;SDS011;38515;53.160;6.990;2022-07-03T02:33:27;6.53;;;5.93;;
52620;SDS011;38515;53.160;6.990;2022-07-03T02:35:56;5.30;;;4.68;;
52620;SDS011;38515;53.160;6.990;2022-07-03T02:38:23;7.82;;;5.93;;
52620;SDS011;38515;53.160;6.990;2022-07-03T02:40:56;5.82;;;4.72;;
52620;SDS011;38515;53.160;6.990;2022-07-03T02:43:47;7.45;;;6.75;;
52620;SDS011;38515;53.160;6.990;2022-07-03T02:54:54;12.85;;;8.18;;
52620;SDS011;38515;53.160;6.990;2022-07-03T02:57:24;13.30;;;8.15;;
52620;SDS011;38515;53.160;6.990;2022-07-03T02:59:57;9.27;;;8.35;;
52620;SDS011;38515;53.160;6.990;2022-07-03T03:05:16;9.30;;;8.38;;
52620;SDS011;38515;53.160;6.990;2022-07-03T03:10:24;8.13;;;7.38;;
52620;SDS011;38515;53.160;6.990;2022-07-03T03:12:59;7.70;;;6.90;;
52620;SDS011;38515;53.160;6.990;2022-07-03T03:15:31;7.53;;;6.82;;
52620;SDS011;38515;53.160;6.990;2022-07-03T03:18:03;8.02;;;6.63;;
52620;SDS011;38515;53.160;6.990;2022-07-03T03:20:33;6.63;;;5.30;;
52620;SDS011;38515;53.160;6.990;2022-07-03T03:25:37;8.93;;;8.05;;
52620;SDS011;38515;53.160;6.990;2022-07-03T03:28:03;9.32;;;8.45;;
52620;SDS011;38515;53.160;6.990;2022-07-03T03:30:29;11.85;;;10.75;;
52620;SDS011;38515;53.160;6.990;2022-07-03T03:32:55;8.55;;;7.75;;
52620;SDS011;38515;53.160;6.990;2022-07-03T03:35:21;9.57;;;7.60;;
52620;SDS011;38515;53.160;6.990;2022-07-03T03:37:47;7.88;;;7.10;;
52620;SDS011;38515;53.160;6.990;2022-07-03T03:40:14;8.52;;;7.40;;
52620;SDS011;38515;53.160;6.990;2022-07-03T03:42:41;7.50;;;6.90;;
52620;SDS011;38515;53.160;6.990;2022-07-03T03:45:07;8.00;;;7.32;;
52620;SDS011;38515;53.160;6.990;2022-07-03T03:47:34;9.85;;;8.38;;
52620;SDS011;38515;53.160;6.990;2022-07-03T03:50:00;8.73;;;7.93;;
52620;SDS011;38515;53.160;6.990;2022-07-03T03:52:27;9.50;;;8.70;;
52620;SDS011;38515;53.160;6.990;2022-07-03T03:54:54;7.93;;;7.13;;
52620;SDS011;38515;53.160;6.990;2022-07-03T03:57:21;9.23;;;8.32;;
52620;SDS011;38515;53.160;6.990;2022-07-03T03:59:48;10.70;;;9.57;;
52620;SDS011;38515;53.160;6.990;2022-07-03T04:02:15;8.98;;;8.13;;
52620;SDS011;38515;53.160;6.990;2022-07-03T04:04:41;8.85;;;6.70;;
52620;SDS011;38515;53.160;6.990;2022-07-03T04:07:07;8.27;;;7.50;;
52620;SDS011;38515;53.160;6.990;2022-07-03T04:09:33;6.80;;;6.03;;
52620;SDS011;38515;53.160;6.990;2022-07-03T04:11:59;6.07;;;5.57;;
52620;SDS011;38515;53.160;6.990;2022-07-03T04:14:25;10.15;;;8.57;;
52620;SDS011;38515;53.160;6.990;2022-07-03T04:16:51;13.57;;;12.13;;
52620;SDS011;38515;53.160;6.990;2022-07-03T04:19:17;10.82;;;9.80;;
52620;SDS011;38515;53.160;6.990;2022-07-03T04:21:43;13.15;;;11.65;;
52620;SDS011;38515;53.160;6.990;2022-07-03T04:24:08;12.13;;;10.77;;
52620;SDS011;38515;53.160;6.990;2022-07-03T04:26:34;14.77;;;12.20;;
52620;SDS011;38515;53.160;6.990;2022-07-03T04:29:00;16.70;;;15.10;;
52620;SDS011;38515;53.160;6.990;2022-07-03T04:31:26;15.20;;;13.65;;
52620;SDS011;38515;53.160;6.990;2022-07-03T04:33:51;14.60;;;13.05;;
52620;SDS011;38515;53.160;6.990;2022-07-03T04:36:17;14.20;;;12.50;;
52620;SDS011;38515;53.160;6.990;2022-07-03T04:38:43;15.98;;;14.35;;
52620;SDS011;38515;53.160;6.990;2022-07-03T04:41:09;19.05;;;13.52;;
52620;SDS011;38515;53.160;6.990;2022-07-03T04:43:35;14.20;;;12.70;;
52620;SDS011;38515;53.160;6.990;2022-07-03T04:46:02;13.20;;;11.20;;
52620;SDS011;38515;53.160;6.990;2022-07-03T04:48:28;12.13;;;11.13;;
52620;SDS011;38515;53.160;6.990;2022-07-03T04:50:54;16.95;;;12.95;;
52620;SDS011;38515;53.160;6.990;2022-07-03T04:53:20;14.10;;;12.63;;
52620;SDS011;38515;53.160;6.990;2022-07-03T04:55:46;14.52;;;13.00;;
52620;SDS011;38515;53.160;6.990;2022-07-03T04:58:12;15.18;;;13.68;;
52620;SDS011;38515;53.160;6.990;2022-07-03T05:00:38;13.45;;;12.15;;
52620;SDS011;38515;53.160;6.990;2022-07-03T05:03:06;19.88;;;12.73;;
52620;SDS011;38515;53.160;6.990;2022-07-03T05:05:32;11.50;;;10.50;;
52620;SDS011;38515;53.160;6.990;2022-07-03T05:07:58;13.05;;;11.73;;
52620;SDS011;38515;53.160;6.990;2022-07-03T05:10:24;14.88;;;12.43;;
52620;SDS011;38515;53.160;6.990;2022-07-03T05:12:50;15.73;;;11.70;;
52620;SDS011;38515;53.160;6.990;2022-07-03T05:15:15;11.27;;;10.10;;
52620;SDS011;38515;53.160;6.990;2022-07-03T05:17:41;14.18;;;10.30;;
52620;SDS011;38515;53.160;6.990;2022-07-03T05:20:07;10.52;;;9.65;;
52620;SDS011;38515;53.160;6.990;2022-07-03T05:22:51;10.80;;;9.65;;
52620;SDS011;38515;53.160;6.990;2022-07-03T05:25:17;12.50;;;8.73;;
52620;SDS011;38515;53.160;6.990;2022-07-03T05:27:43;10.68;;;8.45;;
52620;SDS011;38515;53.160;6.990;2022-07-03T05:30:10;11.73;;;8.60;;
52620;SDS011;38515;53.160;6.990;2022-07-03T05:32:36;12.38;;;8.25;;
52620;SDS011;38515;53.160;6.990;2022-07-03T05:35:02;11.52;;;7.85;;
52620;SDS011;38515;53.160;6.990;2022-07-03T05:37:28;8.48;;;7.63;;
52620;SDS011;38515;53.160;6.990;2022-07-03T05:39:54;13.25;;;8.20;;
52620;SDS011;38515;53.160;6.990;2022-07-03T05:42:20;12.43;;;8.05;;
52620;SDS011;38515;53.160;6.990;2022-07-03T05:44:46;10.27;;;8.52;;
52620;SDS011;38515;53.160;6.990;2022-07-03T05:47:12;9.43;;;8.38;;
52620;SDS011;38515;53.160;6.990;2022-07-03T05:49:37;15.48;;;8.45;;
52620;SDS011;38515;53.160;6.990;2022-07-03T05:52:03;8.95;;;7.75;;
52620;SDS011;38515;53.160;6.990;2022-07-03T05:54:30;7.95;;;6.80;;
52620;SDS011;38515;53.160;6.990;2022-07-03T05:56:55;10.32;;;7.10;;
52620;SDS011;38515;53.160;6.990;2022-07-03T05:59:21;6.30;;;5.70;;
52620;SDS011;38515;53.160;6.990;2022-07-03T06:01:47;7.97;;;5.47;;
52620;SDS011;38515;53.160;6.990;2022-07-03T06:04:13;10.57;;;5.88;;
52620;SDS011;38515;53.160;6.990;2022-07-03T06:06:39;8.10;;;5.35;;
52620;SDS011;38515;53.160;6.990;2022-07-03T06:09:05;7.28;;;5.22;;
52620;SDS011;38515;53.160;6.990;2022-07-03T06:11:30;5.72;;;4.18;;
52620;SDS011;38515;53.160;6.990;2022-07-03T06:13:56;5.38;;;4.68;;
52620;SDS011;38515;53.160;6.990;2022-07-03T06:16:22;5.55;;;4.75;;
52620;SDS011;38515;53.160;6.990;2022-07-03T06:18:48;5.93;;;4.30;;
52620;SDS011;38515;53.160;6.990;2022-07-03T06:21:14;7.95;;;3.80;;
52620;SDS011;38515;53.160;6.990;2022-07-03T06:23:40;4.60;;;4.20;;
52620;SDS011;38515;53.160;6.990;2022-07-03T06:26:06;6.13;;;4.53;;
52620;SDS011;38515;53.160;6.990;2022-07-03T06:28:32;8.15;;;5.05;;
52620;SDS011;38515;53.160;6.990;2022-07-03T06:30:58;5.20;;;3.83;;
52620;SDS011;38515;53.160;6.990;2022-07-03T06:33:24;4.75;;;4.03;;
52620;SDS011;38515;53.160;6.990;2022-07-03T06:35:52;4.28;;;3.30;;
52620;SDS011;38515;53.160;6.990;2022-07-03T06:38:17;6.18;;;4.30;;
52620;SDS011;38515;53.160;6.990;2022-07-03T06:40:43;5.60;;;3.28;;
52620;SDS011;38515;53.160;6.990;2022-07-03T06:43:09;4.18;;;3.33;;
52620;SDS011;38515;53.160;6.990;2022-07-03T06:45:35;4.47;;;3.28;;
52620;SDS011;38515;53.160;6.990;2022-07-03T06:48:01;3.45;;;2.97;;
52620;SDS011;38515;53.160;6.990;2022-07-03T06:50:27;6.03;;;3.47;;
52620;SDS011;38515;53.160;6.990;2022-07-03T06:52:53;6.45;;;3.05;;
52620;SDS011;38515;53.160;6.990;2022-07-03T06:55:19;4.05;;;3.03;;
52620;SDS011;38515;53.160;6.990;2022-07-03T06:57:46;4.72;;;2.45;;
52620;SDS011;38515;53.160;6.990;2022-07-03T07:00:12;4.28;;;2.30;;
52620;SDS011;38515;53.160;6.990;2022-07-03T07:02:38;5.45;;;2.20;;
52620;SDS011;38515;53.160;6.990;2022-07-03T07:05:03;5.53;;;1.60;;
52620;SDS011;38515;53.160;6.990;2022-07-03T07:07:30;2.75;;;1.90;;
52620;SDS011;38515;53.160;6.990;2022-07-03T07:09:56;3.72;;;2.20;;
52620;SDS011;38515;53.160;6.990;2022-07-03T07:12:22;7.28;;;2.13;;
52620;SDS011;38515;53.160;6.990;2022-07-03T07:14:48;3.95;;;1.33;;
52620;SDS011;38515;53.160;6.990;2022-07-03T07:17:14;1.58;;;1.30;;
52620;SDS011;38515;53.160;6.990;2022-07-03T07:19:41;4.65;;;1.23;;
52620;SDS011;38515;53.160;6.990;2022-07-03T07:22:07;4.80;;;1.50;;
52620;SDS011;38515;53.160;6.990;2022-07-03T07:24:34;2.92;;;1.60;;
52620;SDS011;38515;53.160;6.990;2022-07-03T07:27:00;2.63;;;1.58;;
52620;SDS011;38515;53.160;6.990;2022-07-03T07:29:26;4.93;;;1.52;;
52620;SDS011;38515;53.160;6.990;2022-07-03T07:31:52;3.97;;;1.90;;
52620;SDS011;38515;53.160;6.990;2022-07-03T07:34:18;4.72;;;2.10;;
52620;SDS011;38515;53.160;6.990;2022-07-03T07:36:44;2.00;;;1.50;;
52620;SDS011;38515;53.160;6.990;2022-07-03T07:39:11;4.07;;;2.20;;
52620;SDS011;38515;53.160;6.990;2022-07-03T07:41:38;2.55;;;1.70;;
52620;SDS011;38515;53.160;6.990;2022-07-03T07:44:04;5.28;;;2.13;;
52620;SDS011;38515;53.160;6.990;2022-07-03T07:46:30;3.42;;;1.73;;
52620;SDS011;38515;53.160;6.990;2022-07-03T07:48:56;2.85;;;1.88;;
52620;SDS011;38515;53.160;6.990;2022-07-03T07:51:22;3.97;;;1.90;;
52620;SDS011;38515;53.160;6.990;2022-07-03T07:53:49;3.95;;;1.67;;
52620;SDS011;38515;53.160;6.990;2022-07-03T07:56:18;2.13;;;1.65;;
52620;SDS011;38515;53.160;6.990;2022-07-03T07:58:44;3.40;;;1.65;;
52620;SDS011;38515;53.160;6.990;2022-07-03T08:01:11;3.72;;;1.55;;
52620;SDS011;38515;53.160;6.990;2022-07-03T08:03:56;8.43;;;2.13;;
52620;SDS011;38515;53.160;6.990;2022-07-03T08:06:40;2.53;;;1.77;;
52620;SDS011;38515;53.160;6.990;2022-07-03T08:09:06;2.78;;;2.03;;
52620;SDS011;38515;53.160;6.990;2022-07-03T08:11:32;2.63;;;1.80;;
52620;SDS011;38515;53.160;6.990;2022-07-03T08:13:58;5.95;;;1.75;;
52620;SDS011;38515;53.160;6.990;2022-07-03T08:16:26;11.60;;;1.67;;
52620;SDS011;38515;53.160;6.990;2022-07-03T08:18:55;3.58;;;1.73;;
52620;SDS011;38515;53.160;6.990;2022-07-03T08:21:21;1.80;;;1.20;;
52620;SDS011;38515;53.160;6.990;2022-07-03T08:23:47;2.88;;;1.85;;
52620;SDS011;38515;53.160;6.990;2022-07-03T08:26:13;4.22;;;1.90;;
52620;SDS011;38515;53.160;6.990;2022-07-03T08:28:39;3.08;;;1.40;;
52620;SDS011;38515;53.160;6.990;2022-07-03T08:31:05;3.00;;;1.67;;
52620;SDS011;38515;53.160;6.990;2022-07-03T08:33:31;2.42;;;1.70;;
52620;SDS011;38515;53.160;6.990;2022-07-03T08:35:56;3.25;;;1.35;;
52620;SDS011;38515;53.160;6.990;2022-07-03T08:38:24;5.20;;;1.50;;
52620;SDS011;38515;53.160;6.990;2022-07-03T08:40:55;2.78;;;1.42;;
52620;SDS011;38515;53.160;6.990;2022-07-03T08:43:24;3.20;;;1.42;;
52620;SDS011;38515;53.160;6.990;2022-07-03T08:45:50;4.22;;;1.50;;
52620;SDS011;38515;53.160;6.990;2022-07-03T08:48:16;2.33;;;1.75;;
52620;SDS011;38515;53.160;6.990;2022-07-03T08:50:45;3.55;;;1.60;;
52620;SDS011;38515;53.160;6.990;2022-07-03T08:53:12;4.75;;;1.63;;
52620;SDS011;38515;53.160;6.990;2022-07-03T08:55:38;2.85;;;1.75;;
52620;SDS011;38515;53.160;6.990;2022-07-03T08:58:04;2.85;;;1.42;;
52620;SDS011;38515;53.160;6.990;2022-07-03T09:00:33;3.45;;;1.70;;
52620;SDS011;38515;53.160;6.990;2022-07-03T09:03:00;5.25;;;1.77;;
52620;SDS011;38515;53.160;6.990;2022-07-03T09:05:29;2.15;;;1.88;;
52620;SDS011;38515;53.160;6.990;2022-07-03T09:07:55;5.88;;;1.98;;
52620;SDS011;38515;53.160;6.990;2022-07-03T09:10:24;4.18;;;1.90;;
52620;SDS011;38515;53.160;6.990;2022-07-03T09:12:50;5.82;;;1.98;;
52620;SDS011;38515;53.160;6.990;2022-07-03T09:15:16;3.42;;;1.92;;
52620;SDS011;38515;53.160;6.990;2022-07-03T09:17:57;3.95;;;2.10;;
52620;SDS011;38515;53.160;6.990;2022-07-03T09:20:28;5.05;;;1.83;;
52620;SDS011;38515;53.160;6.990;2022-07-03T09:22:58;14.85;;;2.88;;
52620;SDS011;38515;53.160;6.990;2022-07-03T09:25:51;2.28;;;1.90;;
52620;SDS011;38515;53.160;6.990;2022-07-03T09:28:22;3.42;;;2.20;;
52620;SDS011;38515;53.160;6.990;2022-07-03T09:31:01;6.57;;;1.85;;
52620;SDS011;38515;53.160;6.990;2022-07-03T09:33:27;2.38;;;1.77;;
52620;SDS011;38515;53.160;6.990;2022-07-03T09:35:54;4.55;;;1.73;;
52620;SDS011;38515;53.160;6.990;2022-07-03T09:38:21;3.20;;;1.80;;
52620;SDS011;38515;53.160;6.990;2022-07-03T09:40:48;2.28;;;1.40;;
52620;SDS011;38515;53.160;6.990;2022-07-03T09:43:21;4.55;;;1.30;;
52620;SDS011;38515;53.160;6.990;2022-07-03T09:45:55;3.47;;;1.60;;
52620;SDS011;38515;53.160;6.990;2022-07-03T09:48:25;2.50;;;1.55;;
52620;SDS011;38515;53.160;6.990;2022-07-03T09:51:12;2.90;;;1.48;;
52620;SDS011;38515;53.160;6.990;2022-07-03T09:53:44;4.45;;;1.73;;
52620;SDS011;38515;53.160;6.990;2022-07-03T09:56:12;5.05;;;2.03;;
52620;SDS011;38515;53.160;6.990;2022-07-03T09:58:39;4.72;;;1.90;;
52620;SDS011;38515;53.160;6.990;2022-07-03T10:01:16;2.25;;;1.75;;
52620;SDS011;38515;53.160;6.990;2022-07-03T10:03:43;5.80;;;1.88;;
52620;SDS011;38515;53.160;6.990;2022-07-03T10:06:09;3.88;;;2.00;;
52620;SDS011;38515;53.160;6.990;2022-07-03T10:08:35;3.20;;;1.52;;
52620;SDS011;38515;53.160;6.990;2022-07-03T10:11:02;2.45;;;1.95;;
52620;SDS011;38515;53.160;6.990;2022-07-03T10:13:29;2.90;;;1.67;;
52620;SDS011;38515;53.160;6.990;2022-07-03T10:15:58;2.63;;;1.65;;
52620;SDS011;38515;53.160;6.990;2022-07-03T10:18:27;4.88;;;2.58;;
52620;SDS011;38515;53.160;6.990;2022-07-03T10:20:57;2.47;;;1.50;;
52620;SDS011;38515;53.160;6.990;2022-07-03T10:23:24;3.03;;;2.17;;
52620;SDS011;38515;53.160;6.990;2022-07-03T10:25:52;3.42;;;1.83;;
52620;SDS011;38515;53.160;6.990;2022-07-03T10:28:19;2.80;;;1.02;;
52620;SDS011;38515;53.160;6.990;2022-07-03T10:30:46;2.63;;;1.23;;
52620;SDS011;38515;53.160;6.990;2022-07-03T10:33:13;5.53;;;2.45;;
52620;SDS011;38515;53.160;6.990;2022-07-03T10:35:39;2.72;;;1.58;;
52620;SDS011;38515;53.160;6.990;2022-07-03T10:43:39;2.28;;;1.15;;
52620;SDS011;38515;53.160;6.990;2022-07-03T10:46:24;2.42;;;1.20;;
52620;SDS011;38515;53.160;6.990;2022-07-03T10:51:27;1.17;;;0.85;;
52620;SDS011;38515;53.160;6.990;2022-07-03T11:02:16;3.08;;;1.45;;
52620;SDS011;38515;53.160;6.990;2022-07-03T11:07:28;2.80;;;0.98;;
52620;SDS011;38515;53.160;6.990;2022-07-03T11:10:28;3.78;;;1.42;;
52620;SDS011;38515;53.160;6.990;2022-07-03T11:23:17;0.65;;;0.55;;
52620;SDS011;38515;53.160;6.990;2022-07-03T11:26:23;1.58;;;0.90;;
52620;SDS011;38515;53.160;6.990;2022-07-03T11:28:50;1.55;;;0.80;;
52620;SDS011;38515;53.160;6.990;2022-07-03T11:31:17;1.30;;;0.90;;
52620;SDS011;38515;53.160;6.990;2022-07-03T11:33:46;1.10;;;0.75;;
52620;SDS011;38515;53.160;6.990;2022-07-03T11:38:42;0.63;;;0.63;;
52620;SDS011;38515;53.160;6.990;2022-07-03T11:41:11;4.47;;;1.90;;
52620;SDS011;38515;53.160;6.990;2022-07-03T11:43:38;0.80;;;0.57;;
52620;SDS011;38515;53.160;6.990;2022-07-03T11:48:42;6.78;;;1.25;;
52620;SDS011;38515;53.160;6.990;2022-07-03T11:51:08;1.35;;;0.60;;
52620;SDS011;38515;53.160;6.990;2022-07-03T11:53:35;1.80;;;0.60;;
52620;SDS011;38515;53.160;6.990;2022-07-03T11:58:43;1.85;;;0.95;;
52620;SDS011;38515;53.160;6.990;2022-07-03T12:03:49;2.15;;;0.82;;
52620;SDS011;38515;53.160;6.990;2022-07-03T12:06:19;1.25;;;0.73;;
52620;SDS011;38515;53.160;6.990;2022-07-03T12:08:48;1.77;;;1.33;;
52620;SDS011;38515;53.160;6.990;2022-07-03T12:11:17;2.10;;;0.95;;
52620;SDS011;38515;53.160;6.990;2022-07-03T12:13:43;1.45;;;0.80;;
52620;SDS011;38515;53.160;6.990;2022-07-03T12:16:10;0.90;;;0.82;;
52620;SDS011;38515;53.160;6.990;2022-07-03T12:21:22;0.68;;;0.60;;
52620;SDS011;38515;53.160;6.990;2022-07-03T12:23:49;2.00;;;1.02;;
52620;SDS011;38515;53.160;6.990;2022-07-03T12:26:30;1.42;;;0.82;;
52620;SDS011;38515;53.160;6.990;2022-07-03T12:28:58;1.52;;;0.88;;
52620;SDS011;38515;53.160;6.990;2022-07-03T12:31:25;3.95;;;0.90;;
52620;SDS011;38515;53.160;6.990;2022-07-03T12:33:52;1.45;;;0.80;;
52620;SDS011;38515;53.160;6.990;2022-07-03T12:36:18;1.83;;;1.05;;
52620;SDS011;38515;53.160;6.990;2022-07-03T12:38:48;3.22;;;1.08;;
52620;SDS011;38515;53.160;6.990;2022-07-03T12:41:14;13.82;;;0.90;;
52620;SDS011;38515;53.160;6.990;2022-07-03T12:43:42;1.67;;;0.70;;
52620;SDS011;38515;53.160;6.990;2022-07-03T12:46:18;0.75;;;0.70;;
52620;SDS011;38515;53.160;6.990;2022-07-03T12:51:35;2.05;;;0.77;;
52620;SDS011;38515;53.160;6.990;2022-07-03T12:54:13;3.28;;;1.08;;
52620;SDS011;38515;53.160;6.990;2022-07-03T12:57:01;3.38;;;1.08;;
52620;SDS011;38515;53.160;6.990;2022-07-03T13:02:32;1.27;;;0.98;;
52620;SDS011;38515;53.160;6.990;2022-07-03T13:04:59;1.75;;;1.23;;
52620;SDS011;38515;53.160;6.990;2022-07-03T13:07:29;3.20;;;1.30;;
52620;SDS011;38515;53.160;6.990;2022-07-03T13:09:59;5.07;;;1.30;;
52620;SDS011;38515;53.160;6.990;2022-07-03T13:12:26;7.32;;;2.05;;
52620;SDS011;38515;53.160;6.990;2022-07-03T13:14:56;1.90;;;1.20;;
52620;SDS011;38515;53.160;6.990;2022-07-03T13:17:23;4.40;;;2.00;;
52620;SDS011;38515;53.160;6.990;2022-07-03T13:19:49;4.72;;;1.95;;
52620;SDS011;38515;53.160;6.990;2022-07-03T13:22:14;1.27;;;1.15;;
52620;SDS011;38515;53.160;6.990;2022-07-03T13:24:40;6.15;;;1.55;;
52620;SDS011;38515;53.160;6.990;2022-07-03T13:27:06;2.88;;;1.20;;
52620;SDS011;38515;53.160;6.990;2022-07-03T13:29:33;1.50;;;1.35;;
52620;SDS011;38515;53.160;6.990;2022-07-03T13:31:59;2.72;;;1.60;;
52620;SDS011;38515;53.160;6.990;2022-07-03T13:34:25;2.53;;;1.50;;
52620;SDS011;38515;53.160;6.990;2022-07-03T13:36:53;6.18;;;2.25;;
52620;SDS011;38515;53.160;6.990;2022-07-03T13:39:19;4.07;;;2.03;;
52620;SDS011;38515;53.160;6.990;2022-07-03T13:41:45;3.85;;;1.70;;
52620;SDS011;38515;53.160;6.990;2022-07-03T13:44:11;5.53;;;2.95;;
52620;SDS011;38515;53.160;6.990;2022-07-03T13:46:37;3.65;;;2.03;;
52620;SDS011;38515;53.160;6.990;2022-07-03T13:49:03;9.20;;;2.40;;
52620;SDS011;38515;53.160;6.990;2022-07-03T13:51:29;7.30;;;2.63;;
52620;SDS011;38515;53.160;6.990;2022-07-03T13:53:55;9.43;;;2.53;;
52620;SDS011;38515;53.160;6.990;2022-07-03T13:56:21;5.97;;;2.95;;
52620;SDS011;38515;53.160;6.990;2022-07-03T13:58:47;6.20;;;2.95;;
52620;SDS011;38515;53.160;6.990;2022-07-03T14:01:12;5.72;;;2.13;;
52620;SDS011;38515;53.160;6.990;2022-07-03T14:03:38;11.18;;;2.42;;
52620;SDS011;38515;53.160;6.990;2022-07-03T14:06:04;5.22;;;2.03;;
52620;SDS011;38515;53.160;6.990;2022-07-03T14:08:30;6.28;;;2.03;;
52620;SDS011;38515;53.160;6.990;2022-07-03T14:10:56;7.28;;;2.78;;
52620;SDS011;38515;53.160;6.990;2022-07-03T14:13:25;6.32;;;2.33;;
52620;SDS011;38515;53.160;6.990;2022-07-03T14:15:51;4.97;;;2.20;;
52620;SDS011;38515;53.160;6.990;2022-07-03T14:18:17;4.68;;;1.90;;
52620;SDS011;38515;53.160;6.990;2022-07-03T14:20:43;7.65;;;2.88;;
52620;SDS011;38515;53.160;6.990;2022-07-03T14:23:09;6.90;;;2.08;;
52620;SDS011;38515;53.160;6.990;2022-07-03T14:25:35;7.85;;;2.20;;
52620;SDS011;38515;53.160;6.990;2022-07-03T14:28:02;10.27;;;2.78;;
52620;SDS011;38515;53.160;6.990;2022-07-03T14:30:46;4.68;;;2.13;;
52620;SDS011;38515;53.160;6.990;2022-07-03T14:33:31;4.10;;;2.20;;
52620;SDS011;38515;53.160;6.990;2022-07-03T14:35:56;8.77;;;2.75;;
52620;SDS011;38515;53.160;6.990;2022-07-03T14:38:22;4.70;;;2.03;;
52620;SDS011;38515;53.160;6.990;2022-07-03T14:40:48;5.15;;;2.38;;
52620;SDS011;38515;53.160;6.990;2022-07-03T14:43:14;5.65;;;2.67;;
52620;SDS011;38515;53.160;6.990;2022-07-03T14:45:40;4.25;;;2.22;;
52620;SDS011;38515;53.160;6.990;2022-07-03T14:48:06;6.95;;;2.40;;
52620;SDS011;38515;53.160;6.990;2022-07-03T14:50:31;4.05;;;1.48;;
52620;SDS011;38515;53.160;6.990;2022-07-03T14:52:58;3.38;;;1.75;;
52620;SDS011;38515;53.160;6.990;2022-07-03T14:55:24;4.63;;;2.70;;
52620;SDS011;38515;53.160;6.990;2022-07-03T14:58:12;2.55;;;1.30;;
52620;SDS011;38515;53.160;6.990;2022-07-03T15:00:42;2.28;;;1.15;;
52620;SDS011;38515;53.160;6.990;2022-07-03T15:03:16;1.73;;;1.33;;
52620;SDS011;38515;53.160;6.990;2022-07-03T15:05:43;2.33;;;0.90;;
52620;SDS011;38515;53.160;6.990;2022-07-03T15:08:15;1.40;;;0.93;;
52620;SDS011;38515;53.160;6.990;2022-07-03T15:10:53;1.40;;;0.93;;
52620;SDS011;38515;53.160;6.990;2022-07-03T15:13:20;2.38;;;1.35;;
52620;SDS011;38515;53.160;6.990;2022-07-03T15:15:48;3.50;;;1.55;;
52620;SDS011;38515;53.160;6.990;2022-07-03T15:18:17;3.50;;;1.10;;
52620;SDS011;38515;53.160;6.990;2022-07-03T15:20:46;1.65;;;1.38;;
52620;SDS011;38515;53.160;6.990;2022-07-03T15:23:12;1.58;;;0.90;;
52620;SDS011;38515;53.160;6.990;2022-07-03T15:25:39;2.75;;;1.27;;
52620;SDS011;38515;53.160;6.990;2022-07-03T15:28:08;1.20;;;1.08;;
52620;SDS011;38515;53.160;6.990;2022-07-03T15:30:35;1.35;;;1.25;;
52620;SDS011;38515;53.160;6.990;2022-07-03T15:33:01;2.95;;;1.55;;
52620;SDS011;38515;53.160;6.990;2022-07-03T15:35:27;3.17;;;2.05;;
52620;SDS011;38515;53.160;6.990;2022-07-03T15:38:07;2.75;;;2.10;;
52620;SDS011;38515;53.160;6.990;2022-07-03T15:40:45;3.08;;;2.08;;
52620;SDS011;38515;53.160;6.990;2022-07-03T15:46:09;2.00;;;1.55;;
52620;SDS011;38515;53.160;6.990;2022-07-03T15:49:02;2.15;;;1.52;;
52620;SDS011;38515;53.160;6.990;2022-07-03T15:51:55;3.03;;;1.80;;
52620;SDS011;38515;53.160;6.990;2022-07-03T15:54:40;1.73;;;1.50;;
52620;SDS011;38515;53.160;6.990;2022-07-03T15:57:25;3.88;;;1.77;;
52620;SDS011;38515;53.160;6.990;2022-07-03T15:59:56;2.25;;;1.58;;
52620;SDS011;38515;53.160;6.990;2022-07-03T16:02:26;2.05;;;1.35;;
52620;SDS011;38515;53.160;6.990;2022-07-03T16:07:29;1.88;;;1.48;;
52620;SDS011;38515;53.160;6.990;2022-07-03T16:09:57;4.57;;;1.80;;
52620;SDS011;38515;53.160;6.990;2022-07-03T16:12:24;4.75;;;2.22;;
52620;SDS011;38515;53.160;6.990;2022-07-03T16:14:51;3.28;;;1.63;;
52620;SDS011;38515;53.160;6.990;2022-07-03T16:17:18;2.88;;;1.65;;
52620;SDS011;38515;53.160;6.990;2022-07-03T16:19:47;3.17;;;2.13;;
52620;SDS011;38515;53.160;6.990;2022-07-03T16:22:14;2.60;;;1.40;;